Time;durP1;ratioP1;P1;durP2;ratioP2;P2;SDS_P1;SDS_P2;PMS_P1;PMS_P2;Temp;Humidity;BMP_temperature;BMP_pressure;BME280_temperature;BME280_humidity;BME280_pressure;Samples;Min_cycle;Max_cycle;Signal;HPM_P1;HPM_P2
2023/04/05 06:59:53;;;;;;;14.50;7.47;;;;;;;2.81;61.52;96944.09;2103457;27;20556;-63
2023/04/05 07:00:56;;;;;;;11.07;6.05;;;;;;;3.05;61.60;96946.41;2091830;28;20648;-63
2023/04/05 07:01:57;;;;;;;12.02;6.80;;;;;;;3.17;60.81;96949.75;2087505;28;21043;-65
2023/04/05 07:02:59;;;;;;;12.82;7.45;;;;;;;3.34;60.45;96953.00;2085824;28;20195;-66
2023/04/05 07:04:00;;;;;;;16.38;7.30;;;;;;;3.64;59.89;96957.81;2087029;28;20205;-65
2023/04/05 07:05:04;;;;;;;13.90;7.00;;;;;;;3.86;58.75;96953.22;2086092;28;20287;-65
2023/04/05 07:06:08;;;;;;;14.18;6.65;;;;;;;4.21;58.32;96950.16;2084217;28;20200;-63
2023/04/05 07:07:09;;;;;;;15.32;7.07;;;;;;;3.61;58.51;96938.06;2086381;28;20273;-60
2023/04/05 07:08:11;;;;;;;13.70;6.28;;;;;;;3.16;60.14;96948.03;2087286;28;20203;-60
2023/04/05 07:09:12;;;;;;;15.55;7.53;;;;;;;2.87;61.51;96944.88;2088916;28;20229;-62
2023/04/05 07:10:14;;;;;;;13.20;6.70;;;;;;;3.66;60.45;96951.78;2089081;28;20199;-63
2023/04/05 07:11:15;;;;;;;16.48;7.95;;;;;;;4.13;58.44;96956.34;2090705;28;20320;-62
2023/04/05 07:12:17;;;;;;;12.75;7.13;;;;;;;3.79;58.69;96946.47;2089530;28;20203;-63
2023/04/05 07:13:20;;;;;;;14.95;7.78;;;;;;;3.94;58.21;96948.84;2086325;28;20231;-66
2023/04/05 07:14:22;;;;;;;11.98;7.43;;;;;;;3.68;58.73;96933.66;2083212;28;20594;-66
2023/04/05 07:15:23;;;;;;;14.80;7.75;;;;;;;3.99;58.22;96946.19;2084588;28;20192;-66
2023/04/05 07:16:25;;;;;;;15.57;7.10;;;;;;;4.48;57.09;96937.72;2086892;28;20552;-65
2023/04/05 07:17:26;;;;;;;13.18;7.45;;;;;;;4.46;57.30;96938.63;2084551;28;20242;-66
2023/04/05 07:18:28;;;;;;;13.88;7.88;;;;;;;4.82;56.51;96938.88;2085725;28;20196;-63
2023/04/05 07:19:30;;;;;;;19.50;7.53;;;;;;;5.32;55.70;96939.72;2087348;28;20215;-63
2023/04/05 07:20:32;;;;;;;13.25;6.68;;;;;;;6.21;54.37;96937.03;2086900;28;20195;-63
2023/04/05 07:21:33;;;;;;;10.10;5.90;;;;;;;6.68;52.36;96935.97;2086188;28;20224;-63
2023/04/05 07:22:35;;;;;;;10.40;6.47;;;;;;;6.22;53.18;96932.69;2084788;28;20199;-63
2023/04/05 07:23:36;;;;;;;13.65;6.90;;;;;;;6.31;53.80;96937.69;2085434;28;20197;-63
2023/04/05 07:24:37;;;;;;;15.23;6.78;;;;;;;5.94;53.58;96945.38;2088218;28;20239;-63
2023/04/05 07:25:40;;;;;;;11.00;5.63;;;;;;;5.71;54.13;96939.81;2088638;28;20205;-63
2023/04/05 07:26:41;;;;;;;11.73;6.60;;;;;;;5.23;54.95;96938.16;2086700;28;20224;-63
2023/04/05 07:27:43;;;;;;;15.65;5.45;;;;;;;5.75;55.39;96947.50;2086030;28;20202;-63
2023/04/05 07:28:44;;;;;;;11.32;6.43;;;;;;;6.29;53.35;96942.03;2086582;28;20867;-63
2023/04/05 07:29:47;;;;;;;12.38;5.80;;;;;;;6.07;53.41;96941.69;2085256;28;20198;-63
2023/04/05 07:30:48;;;;;;;15.57;6.22;;;;;;;6.12;52.01;96947.63;2083167;28;20235;-63
2023/04/05 07:31:50;;;;;;;11.27;6.70;;;;;;;6.49;52.01;96940.75;2084423;28;20259;-63
2023/04/05 07:32:53;;;;;;;11.77;5.50;;;;;;;6.57;50.30;96940.56;2085048;28;20357;-63
2023/04/05 07:33:54;;;;;;;13.85;6.00;;;;;;;6.31;51.15;96947.19;2081100;28;20304;-63
2023/04/05 07:34:56;;;;;;;7.60;4.90;;;;;;;6.68;51.01;96944.59;2083964;28;20203;-60
2023/04/05 07:35:58;;;;;;;17.38;6.70;;;;;;;7.06;50.55;96941.06;2085313;28;20208;-63
2023/04/05 07:36:59;;;;;;;12.85;6.78;;;;;;;6.63;50.16;96940.41;2079994;28;20239;-61
2023/04/05 07:38:01;;;;;;;11.95;6.22;;;;;;;6.62;51.64;96929.16;2088644;28;20207;-61
2023/04/05 07:39:04;;;;;;;11.48;6.60;;;;;;;7.48;50.61;96949.47;2088195;28;20307;-61
2023/04/05 07:40:06;;;;;;;12.30;6.05;;;;;;;7.33;50.49;96942.94;2082803;28;20363;-62
2023/04/05 07:41:07;;;;;;;10.90;6.13;;;;;;;7.84;49.67;96940.66;2081446;28;20193;-61
2023/04/05 07:42:09;;;;;;;12.48;6.07;;;;;;;8.28;48.97;96943.69;2086890;28;20223;-59
2023/04/05 07:43:10;;;;;;;16.77;10.43;;;;;;;8.36;48.19;96937.41;2083516;28;20678;-60
2023/04/05 07:44:12;;;;;;;56.65;35.00;;;;;;;7.99;48.45;96936.78;2083184;28;20235;-59
2023/04/05 07:45:13;;;;;;;29.58;16.45;;;;;;;8.48;47.95;96943.09;2084873;28;20200;-60
2023/04/05 07:46:15;;;;;;;28.10;16.13;;;;;;;8.52;47.98;96937.78;2085873;28;20192;-61
2023/04/05 07:47:17;;;;;;;22.23;9.38;;;;;;;8.30;48.02;96944.50;2086580;28;20576;-61
2023/04/05 07:48:19;;;;;;;10.15;6.28;;;;;;;8.37;47.67;96941.69;2077676;28;20332;-61
2023/04/05 07:49:26;;;;;;;10.05;6.47;;;;;;;8.25;48.59;96950.72;2078901;28;21210;-64
2023/04/05 07:50:27;;;;;;;9.85;5.55;;;;;;;8.91;47.38;96947.81;2085774;28;20200;-63
2023/04/05 07:51:30;;;;;;;13.43;6.28;;;;;;;9.58;45.73;96949.00;2083887;28;20197;-62
2023/04/05 07:52:31;;;;;;;8.48;5.45;;;;;;;9.52;44.78;96941.41;2087156;28;20621;-60
2023/04/05 07:53:33;;;;;;;17.88;5.70;;;;;;;8.10;46.10;96947.72;2087578;28;20252;-62
2023/04/05 07:54:38;;;;;;;12.07;5.93;;;;;;;7.58;49.92;96951.78;2088986;28;20201;-60
2023/04/05 07:55:40;;;;;;;15.80;5.55;;;;;;;8.66;48.78;96946.88;2086808;28;20625;-60
2023/04/05 07:56:41;;;;;;;10.35;5.70;;;;;;;9.25;45.41;96952.72;2086989;28;20223;-59
2023/04/05 07:57:42;;;;;;;12.55;6.28;;;;;;;9.24;48.22;96953.66;2087680;28;20239;-59
2023/04/05 07:58:44;;;;;;;10.30;5.70;;;;;;;8.65;49.62;96947.75;2087451;28;20227;-58
2023/04/05 07:59:49;;;;;;;11.82;6.75;;;;;;;9.09;47.48;96948.94;2087225;28;20264;-60
2023/04/05 08:00:52;;;;;;;9.73;5.53;;;;;;;8.63;46.20;96951.31;2087182;28;20192;-60
2023/04/05 08:01:53;;;;;;;11.05;5.78;;;;;;;8.91;46.70;96953.88;2087110;28;20216;-59
2023/04/05 08:03:03;;;;;;;49.22;29.40;;;;;;;9.57;46.40;96955.97;2087585;28;20295;-60
2023/04/05 08:04:05;;;;;;;45.83;24.25;;;;;;;9.99;44.46;96953.59;2085564;28;20225;-61
2023/04/05 08:05:07;;;;;;;10.25;7.18;;;;;;;9.96;43.89;96949.34;2086010;28;20580;-60
2023/04/05 08:06:13;;;;;;;13.65;6.82;;;;;;;8.61;43.87;96956.56;2088414;28;20203;-60
2023/04/05 08:07:14;;;;;;;10.55;5.40;;;;;;;7.83;47.05;96951.94;2089057;28;20220;-60
2023/04/05 08:08:16;;;;;;;9.73;5.95;;;;;;;8.87;47.59;96957.47;2086726;28;20593;-60
2023/04/05 08:09:17;;;;;;;10.93;5.82;;;;;;;10.04;47.59;96955.13;2082593;28;20197;-59
2023/04/05 08:10:19;;;;;;;17.23;6.53;;;;;;;10.86;44.78;96953.75;2083976;28;20597;-60
2023/04/05 08:11:20;;;;;;;8.70;4.97;;;;;;;9.14;42.96;96960.06;2079252;28;20197;-60
2023/04/05 08:12:22;;;;;;;8.05;5.30;;;;;;;7.35;45.89;96958.47;2083173;28;20201;-59
2023/04/05 08:13:24;;;;;;;19.80;6.00;;;;;;;8.46;45.91;96957.06;2081752;28;20197;-59
2023/04/05 08:14:26;;;;;;;9.55;5.95;;;;;;;9.61;44.84;96961.91;2082376;28;20231;-60
2023/04/05 08:15:27;;;;;;;10.07;5.40;;;;;;;9.65;45.50;96950.50;2083711;28;20679;-60
2023/04/05 08:16:29;;;;;;;11.80;5.72;;;;;;;10.24;44.31;96954.38;2081369;28;20204;-59
2023/04/05 08:17:30;;;;;;;10.10;5.85;;;;;;;10.41;42.03;96959.00;2078687;28;20197;-60
2023/04/05 08:18:32;;;;;;;9.68;5.80;;;;;;;9.43;45.04;96963.41;2082687;28;20204;-59
2023/04/05 08:19:34;;;;;;;8.48;5.53;;;;;;;9.76;45.63;96953.56;2082916;28;20255;-60
2023/04/05 08:20:37;;;;;;;17.75;6.20;;;;;;;9.70;44.85;96956.38;2080645;28;20299;-60
2023/04/05 08:21:40;;;;;;;13.32;6.47;;;;;;;9.43;43.41;96953.88;2080516;28;20768;-60
2023/04/05 08:22:41;;;;;;;13.95;5.65;;;;;;;9.71;43.44;96959.84;2080169;28;20204;-60
2023/04/05 08:23:43;;;;;;;8.27;5.47;;;;;;;10.11;43.64;96945.31;2078697;28;20410;-59
2023/04/05 08:24:45;;;;;;;9.32;5.70;;;;;;;9.75;45.03;96959.69;2081728;28;20275;-60
2023/04/05 08:25:46;;;;;;;10.98;5.03;;;;;;;10.11;42.90;96955.75;2082433;28;20281;-60
2023/04/05 08:26:48;;;;;;;10.10;5.43;;;;;;;10.09;40.69;96955.81;2078748;28;20249;-60
2023/04/05 08:27:49;;;;;;;14.55;6.03;;;;;;;7.98;43.31;96953.25;2079899;28;20746;-59
2023/04/05 08:28:51;;;;;;;12.10;4.80;;;;;;;7.62;43.17;96948.25;2080192;28;20238;-59
2023/04/05 08:29:52;;;;;;;8.60;5.57;;;;;;;7.38;41.87;96954.94;2080959;28;20232;-59
2023/04/05 08:30:55;;;;;;;11.80;5.40;;;;;;;6.61;42.17;96950.81;2081788;28;20196;-58
2023/04/05 08:31:59;;;;;;;10.18;5.00;;;;;;;7.28;42.25;96952.59;2082121;28;20239;-58
2023/04/05 08:33:01;;;;;;;13.82;5.15;;;;;;;7.15;43.82;96966.81;2081513;28;20204;-59
2023/04/05 08:34:04;;;;;;;14.68;5.28;;;;;;;6.40;44.27;96964.28;2079268;28;20263;-58
2023/04/05 08:35:05;;;;;;;9.60;4.68;;;;;;;6.40;46.33;96962.56;2081065;28;20199;-58
2023/04/05 08:36:08;;;;;;;8.95;4.70;;;;;;;6.46;45.10;96959.81;2077684;28;20221;-58
2023/04/05 08:37:10;;;;;;;11.70;4.80;;;;;;;7.17;44.76;96962.41;2078054;28;20715;-58
2023/04/05 08:38:11;;;;;;;12.32;4.57;;;;;;;6.96;44.30;96962.06;2078212;28;20252;-59
2023/04/05 08:39:14;;;;;;;9.20;4.45;;;;;;;7.09;42.67;96956.56;2079821;28;20196;-58
2023/04/05 08:40:16;;;;;;;10.10;4.47;;;;;;;7.41;43.46;96960.91;2079224;28;20297;-59
2023/04/05 08:41:21;;;;;;;8.35;4.95;;;;;;;7.50;43.66;96959.81;2081862;28;20728;-59
2023/04/05 08:42:47;;;;;;;5.57;3.65;;;;;;;7.16;42.52;96952.91;2082990;28;20295;-59
2023/04/05 08:44:01;;;;;;;14.40;5.22;;;;;;;7.28;42.35;96959.53;2080402;28;20193;-59
2023/04/05 08:45:08;;;;;;;8.70;4.20;;;;;;;7.47;41.54;96959.91;2080437;28;20425;-59
2023/04/05 08:46:13;;;;;;;12.73;4.20;;;;;;;6.61;41.69;96958.59;2080194;28;20201;-59
2023/04/05 08:47:17;;;;;;;8.70;4.15;;;;;;;7.18;44.70;96969.31;2080158;28;20899;-59
2023/04/05 08:48:19;;;;;;;6.00;3.72;;;;;;;7.10;44.83;96968.69;2078815;28;20202;-59
2023/04/05 08:49:22;;;;;;;10.93;4.47;;;;;;;8.39;42.86;96961.56;2079945;28;20237;-59
2023/04/05 08:50:23;;;;;;;10.25;4.97;;;;;;;9.35;42.43;96962.84;2082062;28;20235;-59
2023/04/05 08:51:25;;;;;;;7.70;4.22;;;;;;;9.45;40.54;96959.03;2081341;28;20198;-59
2023/04/05 08:52:30;;;;;;;7.35;4.45;;;;;;;9.73;39.93;96955.44;2080609;28;20272;-59
2023/04/05 08:53:32;;;;;;;18.95;4.72;;;;;;;9.12;39.21;96960.13;2080075;28;20196;-60
2023/04/05 08:54:36;;;;;;;7.28;4.13;;;;;;;9.14;41.56;96962.66;2080249;28;20560;-59
2023/04/05 08:55:38;;;;;;;9.40;4.10;;;;;;;9.74;40.15;96957.13;2078410;28;20197;-59
2023/04/05 08:56:41;;;;;;;9.48;4.70;;;;;;;9.99;40.32;96961.44;2077335;28;20443;-59
2023/04/05 08:57:48;;;;;;;9.23;4.07;;;;;;;9.93;39.38;96954.69;2081860;28;20205;-59
2023/04/05 08:59:11;;;;;;;8.13;4.22;;;;;;;10.29;39.35;96964.66;2083577;28;20556;-59
2023/04/05 09:00:14;;;;;;;8.05;3.67;;;;;;;10.45;39.31;96952.72;2082478;28;20205;-60
2023/04/05 09:01:16;;;;;;;8.40;5.07;;;;;;;9.07;38.76;96945.56;2079994;28;20549;-59
2023/04/05 09:02:21;;;;;;;10.52;5.88;;;;;;;8.90;39.28;96946.97;2080263;28;20404;-59
2023/04/05 09:03:27;;;;;;;6.85;4.30;;;;;;;8.78;41.43;96963.00;2082137;28;20208;-59
2023/04/05 09:04:33;;;;;;;8.63;3.05;;;;;;;9.96;39.79;96952.81;2079883;28;20258;-59
2023/04/05 09:05:38;;;;;;;5.95;3.58;;;;;;;10.77;38.37;96957.59;2082866;28;20228;-60
2023/04/05 09:06:40;;;;;;;7.07;3.47;;;;;;;10.28;38.72;96955.97;2083594;28;20235;-60
2023/04/05 09:07:43;;;;;;;8.98;3.45;;;;;;;9.04;38.07;96963.88;2078981;28;20528;-59
2023/04/05 09:08:45;;;;;;;10.00;4.93;;;;;;;7.74;39.20;96957.44;2077668;28;20203;-59
2023/04/05 09:09:52;;;;;;;7.70;3.83;;;;;;;6.99;41.54;96955.94;2081865;28;20238;-59
2023/04/05 09:10:54;;;;;;;17.08;4.38;;;;;;;7.47;43.17;96957.31;2082039;28;20241;-60
2023/04/05 09:11:56;;;;;;;8.60;3.60;;;;;;;7.87;39.95;96956.16;2082433;28;20224;-61
2023/04/05 09:12:59;;;;;;;7.55;4.28;;;;;;;8.91;41.38;96964.31;2080803;28;20196;-59
2023/04/05 09:14:07;;;;;;;7.72;4.05;;;;;;;8.35;39.52;96952.16;2078960;28;20196;-59
2023/04/05 09:15:08;;;;;;;10.70;4.20;;;;;;;7.87;39.35;96965.72;2079303;28;20201;-59
2023/04/05 09:16:10;;;;;;;8.55;4.05;;;;;;;8.39;39.46;96958.13;2078470;28;20239;-59
2023/04/05 09:17:12;;;;;;;8.07;4.07;;;;;;;9.24;39.13;96958.00;2078740;28;20254;-59
2023/04/05 09:18:14;;;;;;;7.22;4.20;;;;;;;9.99;39.78;96959.66;2081947;28;20243;-59
2023/04/05 09:19:27;;;;;;;5.45;3.63;;;;;;;8.61;38.69;96963.53;2082482;28;20205;-60
2023/04/05 09:20:29;;;;;;;7.05;5.18;;;;;;;7.99;39.77;96962.78;2082340;28;20205;-59
2023/04/05 09:22:00;;;;;;;9.80;4.15;;;;;;;8.22;41.37;96967.28;2080615;28;20228;-59
2023/04/05 09:23:01;;;;;;;6.55;3.85;;;;;;;6.26;41.15;96970.66;2076844;28;20724;-59
2023/04/05 09:24:03;;;;;;;8.23;4.15;;;;;;;5.98;42.71;96968.66;2081214;28;20231;-59
2023/04/05 09:25:05;;;;;;;11.90;3.97;;;;;;;7.02;41.47;96958.44;2081703;28;20295;-59
2023/04/05 09:26:20;;;;;;;8.30;4.97;;;;;;;6.74;41.62;96963.50;2081034;28;20235;-59
2023/04/05 09:27:22;;;;;;;11.10;5.38;;;;;;;7.08;41.00;96962.66;2077741;28;21061;-59
2023/04/05 09:28:40;;;;;;;8.93;5.15;;;;;;;6.38;41.91;96966.91;2078953;28;20196;-59
2023/04/05 09:29:43;;;;;;;9.80;5.03;;;;;;;6.68;42.17;96965.34;2080150;28;20557;-59
2023/04/05 09:30:45;;;;;;;8.68;5.00;;;;;;;7.87;40.98;96963.97;2078770;28;20205;-59
2023/04/05 09:31:48;;;;;;;11.70;4.57;;;;;;;7.86;40.23;96959.69;2083367;28;20743;-59
2023/04/05 09:32:51;;;;;;;8.95;4.78;;;;;;;7.28;40.83;96950.00;2082334;28;20253;-59
2023/04/05 09:33:56;;;;;;;11.00;4.68;;;;;;;8.25;42.12;96955.94;2080658;28;20304;-59
2023/04/05 09:34:59;;;;;;;7.45;4.80;;;;;;;7.97;41.49;96956.75;2081162;28;20202;-59
2023/04/05 09:36:01;;;;;;;9.73;4.70;;;;;;;8.55;41.49;96953.31;2082072;28;20648;-59
2023/04/05 09:37:13;;;;;;;8.48;4.90;;;;;;;9.44;40.53;96954.69;2079794;28;20222;-59
2023/04/05 09:38:15;;;;;;;13.77;4.85;;;;;;;10.50;42.33;96957.78;2079239;28;20211;-60
2023/04/05 09:39:20;;;;;;;7.45;4.10;;;;;;;11.66;39.49;96949.50;2079709;28;20239;-60
2023/04/05 09:40:22;;;;;;;8.15;4.40;;;;;;;12.01;37.35;96947.09;2081575;28;20236;-60
2023/04/05 09:41:24;;;;;;;13.93;4.35;;;;;;;9.47;37.15;96951.97;2076814;28;20660;-60
2023/04/05 09:42:25;;;;;;;11.60;4.22;;;;;;;8.31;39.22;96961.78;2078317;28;20206;-60
2023/04/05 09:43:38;;;;;;;11.10;4.75;;;;;;;6.73;40.87;96954.00;2079937;28;20197;-60
2023/04/05 09:45:04;;;;;;;14.05;5.20;;;;;;;7.14;41.54;96952.94;2079875;28;20204;-59
2023/04/05 09:46:15;;;;;;;9.75;5.43;;;;;;;7.11;41.39;96954.78;2079995;28;20204;-60
2023/04/05 09:47:17;;;;;;;7.75;4.80;;;;;;;8.45;41.03;96950.97;2073685;28;20236;-60
2023/04/05 09:48:19;;;;;;;13.73;4.68;;;;;;;8.63;41.36;96957.38;2072168;28;20201;-60
2023/04/05 09:49:32;;;;;;;10.77;4.90;;;;;;;8.77;39.71;96962.16;2072931;28;20226;-60
2023/04/05 09:50:35;;;;;;;19.25;5.30;;;;;;;9.16;39.11;96955.66;2070914;28;20195;-60
2023/04/05 09:51:38;;;;;;;10.18;4.53;;;;;;;8.23;38.93;96958.59;2074565;28;20874;-60
2023/04/05 09:52:39;;;;;;;10.18;5.05;;;;;;;7.94;40.14;96956.84;2081951;28;20229;-60
2023/04/05 09:54:04;;;;;;;8.93;4.75;;;;;;;8.72;39.96;96957.97;2079939;28;20211;-60
2023/04/05 09:55:06;;;;;;;9.07;4.72;;;;;;;10.33;39.81;96947.09;2080075;28;20193;-60
2023/04/05 09:56:09;;;;;;;6.57;4.07;;;;;;;9.19;37.90;96954.69;2080699;28;20239;-60
2023/04/05 09:57:11;;;;;;;8.82;4.72;;;;;;;10.18;38.63;96948.53;2079086;28;20464;-60
2023/04/05 09:58:18;;;;;;;12.95;5.32;;;;;;;10.94;38.56;96951.66;2083938;28;20243;-60
2023/04/05 09:59:20;;;;;;;8.95;4.65;;;;;;;11.16;37.07;96945.53;2080735;28;20235;-61
2023/04/05 10:00:22;;;;;;;8.73;5.57;;;;;;;10.74;36.36;96949.84;2080996;28;20316;-60
2023/04/05 10:01:29;;;;;;;10.85;4.95;;;;;;;10.04;37.98;96949.91;2080637;28;20217;-60
2023/04/05 10:02:38;;;;;;;8.77;4.68;;;;;;;9.39;38.02;96948.81;2080470;28;20200;-61
2023/04/05 10:03:47;;;;;;;9.20;4.45;;;;;;;9.42;38.92;96939.13;2080396;28;20200;-60
2023/04/05 10:04:49;;;;;;;7.45;4.65;;;;;;;10.90;39.45;96945.69;2078519;28;20220;-60
2023/04/05 10:05:55;;;;;;;7.78;3.95;;;;;;;12.15;37.52;96943.84;2081073;28;20212;-61
2023/04/05 10:06:56;;;;;;;8.52;4.00;;;;;;;10.51;38.31;96935.94;2075743;28;20225;-61
2023/04/05 10:07:59;;;;;;;61.08;33.15;;;;;;;11.71;37.69;96943.16;2081758;28;20508;-61
2023/04/05 10:09:01;;;;;;;9.02;5.00;;;;;;;8.85;37.32;96943.69;2081071;28;20196;-61
2023/04/05 10:10:03;;;;;;;8.57;5.30;;;;;;;7.81;38.66;96930.38;2082169;28;20205;-61
2023/04/05 10:11:05;;;;;;;8.43;4.80;;;;;;;8.93;38.77;96939.03;2081566;28;20251;-61
2023/04/05 10:12:08;;;;;;;9.50;4.70;;;;;;;10.62;37.75;96930.31;2080545;28;20590;-62
2023/04/05 10:13:10;;;;;;;7.75;3.80;;;;;;;11.13;37.82;96927.38;2081923;28;20216;-61
2023/04/05 10:14:11;;;;;;;13.23;4.55;;;;;;;11.71;36.79;96934.47;2082819;28;20200;-61
2023/04/05 10:15:13;;;;;;;7.25;4.50;;;;;;;11.74;37.26;96935.19;2080620;28;20719;-61
2023/04/05 10:16:19;;;;;;;9.07;4.68;;;;;;;12.43;36.16;96922.47;2080537;28;20208;-61
2023/04/05 10:17:48;;;;;;;8.15;4.68;;;;;;;10.49;36.44;96922.13;2079560;28;20197;-61
2023/04/05 10:18:50;;;;;;;9.98;4.50;;;;;;;11.22;37.14;96929.59;2085775;28;20215;-62
2023/04/05 10:20:23;;;;;;;6.88;3.70;;;;;;;11.69;35.15;96934.50;2085126;28;20694;-62
2023/04/05 10:21:30;;;;;;;9.80;4.57;;;;;;;11.13;36.72;96936.06;2079959;28;20223;-62
2023/04/05 10:22:50;;;;;;;9.65;4.75;;;;;;;12.26;36.59;96925.88;2080809;28;20205;-61
2023/04/05 10:24:17;;;;;;;14.05;4.90;;;;;;;13.61;35.05;96920.13;2081001;28;20203;-62
2023/04/05 10:25:27;;;;;;;8.10;4.53;;;;;;;14.20;32.71;96923.06;2082576;28;20720;-62
2023/04/05 10:26:40;;;;;;;9.85;4.00;;;;;;;14.59;32.86;96917.47;2078480;28;20203;-62
2023/04/05 10:27:47;;;;;;;7.55;4.20;;;;;;;15.04;32.16;96928.94;2073532;28;20273;-62
2023/04/05 10:28:54;;;;;;;9.07;4.93;;;;;;;12.39;32.03;96923.50;2082571;28;20192;-62
2023/04/05 10:30:07;;;;;;;7.25;4.95;;;;;;;12.58;32.97;96923.47;2080250;28;20226;-62
2023/04/05 10:31:21;;;;;;;8.38;4.30;;;;;;;11.18;33.90;96917.56;2078978;28;20222;-62
2023/04/05 10:33:07;;;;;;;7.40;4.82;;;;;;;10.39;35.15;96912.97;2070596;28;20226;-62
2023/04/05 10:34:26;;;;;;;11.10;4.43;;;;;;;10.55;35.41;96908.84;2072987;28;20198;-62
2023/04/05 10:35:39;;;;;;;10.15;5.13;;;;;;;11.36;35.30;96918.53;2089249;28;20245;-62
2023/04/05 10:36:59;;;;;;;7.93;4.20;;;;;;;11.95;35.04;96923.78;2087773;28;20320;-62
2023/04/05 10:38:10;;;;;;;11.55;4.88;;;;;;;12.16;33.57;96920.19;2081164;28;20676;-61
2023/04/05 10:39:22;;;;;;;11.13;4.40;;;;;;;13.33;32.91;96918.03;2081921;28;20284;-62
2023/04/05 10:40:29;;;;;;;6.05;3.53;;;;;;;13.26;33.66;96911.44;2082208;28;20188;-62
2023/04/05 10:41:40;;;;;;;8.63;4.40;;;;;;;14.29;33.50;96913.00;2079429;28;20211;-62
2023/04/05 10:42:45;;;;;;;6.18;4.13;;;;;;;13.90;32.39;96919.50;2078988;28;20202;-62
2023/04/05 10:43:48;;;;;;;7.97;4.90;;;;;;;14.83;32.22;96910.00;2079059;28;20211;-62
2023/04/05 10:44:54;;;;;;;6.70;4.03;;;;;;;14.78;31.59;96910.28;2080836;28;20227;-62
2023/04/05 10:45:58;;;;;;;5.50;4.00;;;;;;;14.15;31.27;96911.16;2078737;28;20343;-60
2023/04/05 10:47:00;;;;;;;10.65;5.28;;;;;;;12.70;32.98;96917.66;2080144;28;20282;-60
2023/04/05 10:48:13;;;;;;;5.22;4.28;;;;;;;13.11;34.71;96918.31;2080218;28;20730;-60
2023/04/05 10:49:42;;;;;;;8.65;4.85;;;;;;;14.77;33.30;96916.47;2077733;28;20203;-60
2023/04/05 10:50:46;;;;;;;14.88;5.55;;;;;;;16.20;32.53;96914.13;2079275;28;20204;-60
2023/04/05 10:51:49;;;;;;;8.07;4.20;;;;;;;-145.49;100.00;55703.94;2080598;28;20256;-60
2023/04/05 10:52:52;;;;;;;7.70;4.50;;;;;;;-145.49;100.00;55703.94;2079551;28;20275;-61
2023/04/05 10:53:55;;;;;;;6.47;4.10;;;;;;;-145.49;100.00;55703.94;2080440;28;20204;-61
2023/04/05 10:54:58;;;;;;;5.20;4.15;;;;;;;-145.49;100.00;55703.94;2081940;28;20204;-61
2023/04/05 10:56:01;;;;;;;11.80;4.95;;;;;;;-145.49;100.00;55703.94;2081692;28;20196;-61
2023/04/05 10:57:06;;;;;;;5.03;3.95;;;;;;;-145.49;100.00;55703.94;2079342;28;20311;-60
2023/04/05 10:58:12;;;;;;;8.15;5.35;;;;;;;-145.49;100.00;55703.94;2076125;28;20212;-61
2023/04/05 10:59:14;;;;;;;6.60;4.80;;;;;;;13.31;33.33;96904.19;2077924;28;20233;-60
2023/04/05 11:00:17;;;;;;;7.90;4.35;;;;;;;14.09;32.93;96911.47;2079342;28;20185;-60
2023/04/05 11:01:20;;;;;;;10.07;4.30;;;;;;;14.79;31.92;96909.34;2078281;28;20311;-61
2023/04/05 11:02:22;;;;;;;8.18;5.03;;;;;;;16.16;30.94;96907.34;2079273;28;20227;-61
2023/04/05 11:03:46;;;;;;;6.60;4.13;;;;;;;-145.49;100.00;55703.94;2080932;28;20193;-61
2023/04/05 11:04:57;;;;;;;8.05;4.30;;;;;;;-145.49;100.00;55703.94;2079760;28;20326;-61
2023/04/05 11:06:18;;;;;;;9.73;5.15;;;;;;;-145.49;100.00;55703.94;2080796;28;20873;-61
2023/04/05 11:07:20;;;;;;;7.72;4.40;;;;;;;13.66;31.63;96888.38;2097218;28;20582;-60
2023/04/05 11:08:22;;;;;;;11.73;5.10;;;;;;;15.46;32.00;96894.94;2098445;28;20234;-61
2023/04/05 11:09:24;;;;;;;7.32;4.43;;;;;;;16.00;31.15;96902.19;2081599;28;20200;-61
2023/04/05 11:10:27;;;;;;;8.93;4.60;;;;;;;16.00;31.15;96902.19;2081669;28;20209;-61
2023/04/05 11:11:38;;;;;;;9.68;5.55;;;;;;;14.92;30.28;96898.09;2077000;28;20201;-61
2023/04/05 11:12:59;;;;;;;7.22;5.20;;;;;;;16.39;29.91;96899.75;2077179;28;20303;-61
2023/04/05 11:14:16;;;;;;;7.07;4.47;;;;;;;17.45;30.14;96895.41;2079618;28;20243;-61
2023/04/05 11:15:24;;;;;;;7.38;4.30;;;;;;;17.82;29.17;96896.47;2078469;28;20772;-61
2023/04/05 11:16:38;;;;;;;10.95;4.80;;;;;;;18.07;28.03;96892.97;2076227;28;20209;-61
2023/04/05 11:17:39;;;;;;;8.27;4.60;;;;;;;16.28;27.65;96900.47;2079466;28;20196;-61
2023/04/05 11:18:53;;;;;;;7.13;4.60;;;;;;;16.74;28.59;96899.28;2081010;28;20662;-63
2023/04/05 11:20:03;;;;;;;12.02;4.70;;;;;;;16.04;30.12;96889.69;2080683;28;20207;-61
2023/04/05 11:21:06;;;;;;;6.50;4.15;;;;;;;16.51;30.95;96890.22;2081020;28;20207;-60
2023/04/05 11:22:12;;;;;;;7.35;4.43;;;;;;;15.48;30.20;96888.63;2080056;28;20842;-61
2023/04/05 11:23:20;;;;;;;7.53;4.78;;;;;;;15.03;31.25;96893.06;2078529;28;20225;-61
2023/04/05 11:24:22;;;;;;;7.45;4.75;;;;;;;15.75;31.59;96887.03;2074444;28;20567;-60
2023/04/05 11:25:23;;;;;;;8.80;5.13;;;;;;;15.29;30.33;96893.31;2073982;28;20216;-60
2023/04/05 11:26:53;;;;;;;8.77;4.53;;;;;;;13.37;32.96;96896.03;2077647;28;20414;-60
2023/04/05 11:28:00;;;;;;;6.70;3.80;;;;;;;13.29;32.91;96888.50;2078488;28;20266;-60
2023/04/05 11:29:02;;;;;;;9.85;5.18;;;;;;;14.21;30.72;96890.63;2080040;28;20971;-60
2023/04/05 11:30:05;;;;;;;6.80;4.22;;;;;;;14.05;32.30;96887.16;2081545;28;20223;-60
2023/04/05 11:31:21;;;;;;;9.10;4.82;;;;;;;13.55;31.37;96884.56;2081429;28;20200;-60
2023/04/05 11:32:36;;;;;;;8.00;4.18;;;;;;;13.81;31.41;96884.94;2077842;28;20678;-61
2023/04/05 11:33:43;;;;;;;7.65;4.70;;;;;;;11.52;34.51;96888.19;2080392;28;20196;-61
2023/04/05 11:35:03;;;;;;;14.23;4.57;;;;;;;13.12;34.22;96888.53;2080041;28;20220;-60
2023/04/05 11:36:05;;;;;;;7.43;4.75;;;;;;;14.33;33.78;96885.63;2079313;28;20204;-62
2023/04/05 11:37:07;;;;;;;12.70;5.20;;;;;;;15.36;32.56;96884.09;2078680;28;20221;-62
2023/04/05 11:38:08;;;;;;;6.68;4.70;;;;;;;16.27;31.59;96873.25;2079171;28;20236;-62
2023/04/05 11:39:28;;;;;;;9.07;5.05;;;;;;;16.77;30.50;96886.75;2079807;28;20203;-62
2023/04/05 11:40:31;;;;;;;7.28;4.13;;;;;;;17.01;29.82;96883.44;2082985;28;20219;-63
2023/04/05 11:41:33;;;;;;;12.05;4.43;;;;;;;17.34;29.82;96879.44;2081806;28;20230;-62
2023/04/05 11:42:35;;;;;;;7.97;4.13;;;;;;;17.05;30.18;96873.53;2086592;28;20669;-62
2023/04/05 11:43:41;;;;;;;8.13;4.70;;;;;;;17.13;30.71;96872.06;2087476;28;20200;-63
2023/04/05 11:44:50;;;;;;;9.88;5.15;;;;;;;16.90;30.71;96864.81;2080043;28;20193;-62
2023/04/05 11:45:53;;;;;;;9.27;4.85;;;;;;;17.17;30.53;96869.22;2080369;28;20674;-62
2023/04/05 11:46:54;;;;;;;11.90;4.70;;;;;;;17.78;30.42;96872.06;2081669;28;20765;-62
2023/04/05 11:48:09;;;;;;;7.97;4.20;;;;;;;18.01;30.09;96865.16;2081301;28;20208;-63
2023/04/05 11:49:12;;;;;;;8.85;4.95;;;;;;;18.30;29.46;96869.31;2080011;28;20197;-61
2023/04/05 11:50:13;;;;;;;6.88;4.70;;;;;;;18.11;29.27;96860.91;2080316;28;20652;-61
2023/04/05 11:51:15;;;;;;;10.43;5.05;;;;;;;18.25;28.93;96859.09;2080258;28;20569;-61
2023/04/05 11:52:19;;;;;;;10.02;4.95;;;;;;;17.58;28.72;96863.72;2081491;28;20723;-61
2023/04/05 11:53:21;;;;;;;7.60;4.85;;;;;;;17.93;29.07;96863.06;2080328;28;20201;-61
2023/04/05 11:54:30;;;;;;;9.63;4.63;;;;;;;16.39;29.39;96862.88;2082446;28;20198;-61
2023/04/05 11:55:31;;;;;;;10.63;4.70;;;;;;;16.87;30.09;96855.31;2082089;28;20199;-61
2023/04/05 11:56:33;;;;;;;7.85;4.40;;;;;;;17.77;29.77;96857.16;2082474;28;20204;-61
2023/04/05 11:57:36;;;;;;;10.85;4.82;;;;;;;18.28;29.19;96858.84;2083163;28;20721;-61
2023/04/05 11:58:38;;;;;;;9.55;4.20;;;;;;;18.38;28.78;96857.22;2082111;28;20205;-61
2023/04/05 11:59:41;;;;;;;9.50;4.95;;;;;;;18.43;29.31;96855.09;2080412;28;20307;-63
2023/04/05 12:00:44;;;;;;;10.10;5.00;;;;;;;17.86;28.37;96858.31;2081626;28;20204;-61
2023/04/05 12:01:56;;;;;;;6.10;4.38;;;;;;;17.01;28.13;96856.22;2081312;28;20743;-61
2023/04/05 12:02:57;;;;;;;8.98;4.70;;;;;;;16.67;29.27;96861.06;2080690;28;20259;-61
2023/04/05 12:03:59;;;;;;;7.40;4.25;;;;;;;16.61;29.58;96854.41;2080303;28;20545;-61
2023/04/05 12:05:01;;;;;;;5.22;4.30;;;;;;;17.39;29.44;96844.84;2082592;28;20266;-61
2023/04/05 12:06:04;;;;;;;24.63;14.73;;;;;;;17.37;28.55;96854.66;2082737;28;20828;-61
2023/04/05 12:07:17;;;;;;;12.57;5.78;;;;;;;16.60;28.42;96856.19;2071916;28;20222;-61